createdAt,value
2023-02-28T00:02:51.775Z,54.19
2023-02-28T00:05:53.311Z,54.25
2023-02-28T00:08:55.472Z,54.20
2023-02-28T00:11:56.993Z,54.37
2023-02-28T00:14:58.531Z,54.27
2023-02-28T00:18:00.278Z,54.28
2023-02-28T00:21:02.382Z,54.64
2023-02-28T00:24:04.108Z,54.32
2023-02-28T00:27:05.699Z,54.34
2023-02-28T00:30:09.663Z,54.13
2023-02-28T00:33:12.034Z,54.51
2023-02-28T00:36:13.575Z,54.96
2023-02-28T00:39:15.186Z,54.60
2023-02-28T00:42:16.733Z,54.58
2023-02-28T00:45:18.461Z,54.74
2023-02-28T00:48:20.026Z,54.80
2023-02-28T00:51:21.581Z,55.01
2023-02-28T00:54:23.360Z,54.74
2023-02-28T00:57:24.959Z,54.85
2023-02-28T01:00:26.502Z,54.91
2023-02-28T01:03:28.067Z,55.00
2023-02-28T01:06:30.288Z,54.66
2023-02-28T01:09:31.953Z,55.03
2023-02-28T01:12:33.528Z,54.80
2023-02-28T01:15:35.182Z,55.06
2023-02-28T01:18:37.988Z,55.05
2023-02-28T01:21:39.574Z,54.70
2023-02-28T01:24:41.127Z,55.07
2023-02-28T01:27:42.701Z,55.02
2023-02-28T01:31:04.218Z,54.90
2023-02-28T01:34:05.912Z,54.79
2023-02-28T01:37:07.483Z,54.79
2023-02-28T01:40:09.774Z,55.00
2023-02-28T01:43:25.917Z,54.91
2023-02-28T01:46:27.639Z,54.92
2023-02-28T01:49:29.259Z,54.89
2023-02-28T01:52:32.866Z,55.12
2023-02-28T01:55:35.569Z,54.79
2023-02-28T01:58:38.131Z,55.15
2023-02-28T02:01:39.753Z,55.03
2023-02-28T02:04:51.057Z,54.87
2023-02-28T02:07:57.038Z,55.03
2023-02-28T02:11:02.051Z,54.82
2023-02-28T02:14:22.533Z,55.23
2023-02-28T02:17:45.666Z,54.97
2023-02-28T02:21:19.604Z,55.27
2023-02-28T02:24:36.276Z,54.89
2023-02-28T02:28:05.658Z,55.23
2023-02-28T02:31:16.170Z,55.15
2023-02-28T02:34:42.455Z,54.83
2023-02-28T02:37:51.234Z,55.09
2023-02-28T02:41:17.001Z,55.17
2023-02-28T02:44:57.245Z,54.99
2023-02-28T02:48:01.256Z,55.10
2023-02-28T02:51:12.846Z,55.08
2023-02-28T02:54:19.132Z,54.96
2023-02-28T02:57:56.568Z,55.02
2023-02-28T03:01:01.777Z,55.20
2023-02-28T03:04:16.025Z,55.24
2023-02-28T03:07:17.584Z,55.25
2023-02-28T03:10:29.652Z,55.18
2023-02-28T03:13:53.377Z,55.17
2023-02-28T03:17:10.181Z,55.49
2023-02-28T03:20:43.166Z,55.33
2023-02-28T03:24:04.831Z,55.39
2023-02-28T03:27:13.101Z,55.54
2023-02-28T03:30:37.128Z,55.53
2023-02-28T03:34:02.106Z,55.19
2023-02-28T03:37:09.855Z,55.59
2023-02-28T03:40:22.536Z,55.43
2023-02-28T03:43:29.828Z,55.58
2023-02-28T03:46:37.328Z,55.25
2023-02-28T03:49:48.906Z,55.34
2023-02-28T03:53:19.361Z,55.33
2023-02-28T03:56:26.089Z,55.38
2023-02-28T03:59:37.703Z,55.34
2023-02-28T04:02:40.582Z,55.24
2023-02-28T04:05:56.783Z,55.63
2023-02-28T04:08:58.500Z,55.31
2023-02-28T04:12:00.424Z,55.38
2023-02-28T04:15:02.010Z,55.26
2023-02-28T04:18:03.650Z,55.61
2023-02-28T04:21:05.984Z,55.66
2023-02-28T04:24:09.798Z,55.53
2023-02-28T04:27:11.504Z,55.71
2023-02-28T04:30:13.600Z,55.66
2023-02-28T04:33:15.113Z,55.76
2023-02-28T04:36:18.755Z,55.44
2023-02-28T04:39:20.768Z,55.57
2023-02-28T04:42:22.395Z,55.63
2023-02-28T04:45:23.970Z,55.76
2023-02-28T04:48:26.799Z,55.70
2023-02-28T04:51:28.627Z,55.59
2023-02-28T04:54:30.899Z,55.80
2023-02-28T04:57:32.478Z,55.93
2023-02-28T05:00:34.057Z,55.85
2023-02-28T05:03:35.656Z,55.58
2023-02-28T05:06:37.215Z,55.53
2023-02-28T05:09:38.817Z,55.60
2023-02-28T05:12:40.379Z,55.83
2023-02-28T05:15:41.989Z,55.80
2023-02-28T05:18:43.696Z,55.87
2023-02-28T05:21:55.812Z,55.55
2023-02-28T05:24:57.346Z,56.06
2023-02-28T05:27:58.898Z,55.92
2023-02-28T05:31:00.478Z,55.85
2023-02-28T05:34:02.357Z,55.82
2023-02-28T05:37:04.109Z,55.96
2023-02-28T05:40:08.189Z,56.02
2023-02-28T05:43:12.823Z,56.61
2023-02-28T05:46:15.117Z,56.61
2023-02-28T05:49:16.699Z,56.05
2023-02-28T05:52:18.708Z,55.95
2023-02-28T05:55:20.323Z,55.66
2023-02-28T05:58:22.860Z,55.96
2023-02-28T06:01:39.930Z,55.72
2023-02-28T06:04:42.583Z,56.07
2023-02-28T06:07:45.089Z,55.88
2023-02-28T06:10:46.801Z,55.98
2023-02-28T06:13:48.641Z,55.86
2023-02-28T06:16:50.293Z,55.75
2023-02-28T06:19:51.921Z,55.84
2023-02-28T06:22:55.589Z,55.87
2023-02-28T06:25:59.319Z,55.82
2023-02-28T06:29:02.068Z,55.88
2023-02-28T06:32:03.865Z,55.94
2023-02-28T06:35:05.749Z,55.76
2023-02-28T06:38:07.539Z,55.85
2023-02-28T06:41:09.850Z,55.63
2023-02-28T06:44:18.979Z,55.75
2023-02-28T06:47:20.567Z,55.87
2023-02-28T06:50:22.122Z,55.89
2023-02-28T06:53:23.657Z,55.92
2023-02-28T06:56:25.309Z,55.74
2023-02-28T06:59:27.168Z,55.65
2023-02-28T07:02:28.923Z,55.93
2023-02-28T07:05:30.742Z,55.91
2023-02-28T07:08:33.106Z,56.12
2023-02-28T07:11:35.107Z,56.22
2023-02-28T07:14:38.147Z,55.91
2023-02-28T07:17:39.774Z,55.73
2023-02-28T07:20:41.362Z,55.62
2023-02-28T07:23:42.924Z,55.68
2023-02-28T07:26:44.592Z,55.73
2023-02-28T07:29:46.156Z,55.48
2023-02-28T07:32:47.752Z,55.44
2023-02-28T07:35:49.324Z,55.77
2023-02-28T07:38:51.306Z,55.37
2023-02-28T07:41:53.020Z,55.15
2023-02-28T07:44:54.559Z,55.36
2023-02-28T07:47:57.018Z,55.01
2023-02-28T07:50:59.886Z,55.10
2023-02-28T07:54:01.524Z,55.29
2023-02-28T07:57:03.934Z,55.04
2023-02-28T08:00:07.048Z,54.94
2023-02-28T08:03:13.042Z,55.01
2023-02-28T08:06:22.152Z,55.24
2023-02-28T08:09:23.911Z,54.97
2023-02-28T08:12:25.486Z,55.74
2023-02-28T08:15:27.078Z,55.39
2023-02-28T08:18:28.642Z,55.29
2023-02-28T08:21:30.666Z,55.18
2023-02-28T08:24:32.471Z,55.21
2023-02-28T08:27:34.094Z,55.16
2023-02-28T08:30:35.693Z,55.20
2023-02-28T08:33:38.234Z,55.18
2023-02-28T08:36:40.717Z,55.07
2023-02-28T08:39:42.351Z,54.94
2023-02-28T08:42:43.923Z,55.37
2023-02-28T08:45:45.576Z,54.84
2023-02-28T08:48:47.256Z,55.04
2023-02-28T08:51:48.766Z,55.19
2023-02-28T08:54:50.443Z,55.05
2023-02-28T08:57:51.989Z,54.80
2023-02-28T09:00:54.229Z,54.88
2023-02-28T09:07:03.472Z,54.77
2023-02-28T09:10:05.458Z,54.61
2023-02-28T09:13:07.698Z,54.78
2023-02-28T09:16:12.936Z,54.72
2023-02-28T09:19:14.989Z,54.80
2023-02-28T09:22:16.945Z,54.58
2023-02-28T09:25:19.849Z,54.62
2023-02-28T09:28:22.408Z,54.59
2023-02-28T09:31:27.035Z,54.47
2023-02-28T09:34:31.939Z,54.46
2023-02-28T09:37:33.609Z,54.23
2023-02-28T09:40:46.158Z,54.26
2023-02-28T09:44:00.719Z,54.02
2023-02-28T09:47:12.359Z,53.95
2023-02-28T09:50:37.277Z,54.03
2023-02-28T09:53:40.957Z,53.91
2023-02-28T09:56:43.182Z,53.86
2023-02-28T09:59:50.891Z,53.74
2023-02-28T10:03:04.546Z,53.62
2023-02-28T10:06:23.805Z,53.66
2023-02-28T10:09:33.249Z,53.66
2023-02-28T10:12:38.772Z,53.52
2023-02-28T10:15:40.448Z,53.48
2023-02-28T10:18:52.194Z,53.42
2023-02-28T10:22:12.825Z,53.14
2023-02-28T10:25:23.734Z,53.28
2023-02-28T10:28:27.280Z,53.19
2023-02-28T10:31:29.062Z,53.07
2023-02-28T10:34:30.716Z,53.25
2023-02-28T10:37:33.248Z,53.32
2023-02-28T10:40:36.827Z,53.10
2023-02-28T10:43:40.714Z,52.90
2023-02-28T10:46:43.530Z,52.80
2023-02-28T10:49:50.152Z,52.82
2023-02-28T10:52:51.721Z,52.73
2023-02-28T10:56:04.533Z,52.99
2023-02-28T10:59:09.137Z,52.73
2023-02-28T11:02:38.629Z,52.87
2023-02-28T11:05:42.335Z,52.89
2023-02-28T11:08:46.883Z,52.63
2023-02-28T11:11:50.031Z,52.65
2023-02-28T11:14:59.029Z,52.65
2023-02-28T11:18:00.539Z,52.90
2023-02-28T11:21:03.898Z,52.52
2023-02-28T11:24:16.747Z,52.55
2023-02-28T11:27:53.562Z,52.58
2023-02-28T11:31:13.299Z,52.28
2023-02-28T11:34:25.925Z,52.51
2023-02-28T11:37:28.993Z,52.30
2023-02-28T11:41:06.455Z,52.38
2023-02-28T11:44:10.718Z,52.38
2023-02-28T11:47:21.855Z,52.24
2023-02-28T11:50:40.834Z,52.08
2023-02-28T11:54:10.016Z,51.62
2023-02-28T11:57:57.759Z,52.03
2023-02-28T12:01:08.806Z,52.41
2023-02-28T12:04:26.054Z,52.16
2023-02-28T12:08:04.656Z,52.09
2023-02-28T12:11:12.222Z,52.14
2023-02-28T12:14:28.221Z,52.15
2023-02-28T12:17:35.699Z,52.19
2023-02-28T12:21:03.345Z,52.18
2023-02-28T12:24:17.152Z,51.96
2023-02-28T12:27:23.047Z,51.54
2023-02-28T12:30:33.767Z,51.72
2023-02-28T12:33:44.987Z,51.77
2023-02-28T12:36:48.448Z,51.92
2023-02-28T12:39:55.968Z,51.80
2023-02-28T12:43:08.053Z,51.79
2023-02-28T12:46:21.024Z,51.85
2023-02-28T12:49:50.503Z,51.79
2023-02-28T12:53:10.650Z,51.69
2023-02-28T12:56:40.985Z,51.31
2023-02-28T13:00:05.768Z,51.52
2023-02-28T13:03:19.225Z,51.66
2023-02-28T13:06:29.682Z,51.60
2023-02-28T13:09:31.542Z,51.70
2023-02-28T13:12:33.799Z,51.25
2023-02-28T13:15:41.523Z,51.28
2023-02-28T13:18:47.871Z,51.28
2023-02-28T13:21:50.068Z,51.57
2023-02-28T13:24:56.795Z,51.40
2023-02-28T13:28:02.036Z,51.46
2023-02-28T13:31:05.924Z,51.26
2023-02-28T13:34:15.975Z,51.43
2023-02-28T13:37:24.017Z,51.46
2023-02-28T13:40:38.772Z,51.38
2023-02-28T13:44:27.798Z,51.59
2023-02-28T13:47:52.626Z,51.46
2023-02-28T13:50:54.243Z,51.30
2023-02-28T13:54:09.172Z,51.13
2023-02-28T13:57:38.586Z,51.12
2023-02-28T14:00:57.183Z,51.06
2023-02-28T14:04:31.353Z,50.94
2023-02-28T14:07:48.145Z,50.69
2023-02-28T14:11:08.202Z,50.87
2023-02-28T14:14:30.940Z,50.85
2023-02-28T14:17:33.191Z,50.79
2023-02-28T14:20:35.274Z,50.87
2023-02-28T14:23:56.783Z,50.95
2023-02-28T14:27:05.081Z,50.93
2023-02-28T14:30:09.720Z,50.70
2023-02-28T14:33:20.437Z,50.58
2023-02-28T14:36:27.471Z,50.65
2023-02-28T14:39:34.390Z,50.63
2023-02-28T14:42:39.090Z,50.75
2023-02-28T14:45:40.695Z,50.83
2023-02-28T14:48:45.798Z,50.74
2023-02-28T14:51:50.402Z,50.88
2023-02-28T14:54:59.350Z,50.79
2023-02-28T14:58:07.615Z,50.62
2023-02-28T15:01:11.341Z,50.68
2023-02-28T15:04:24.034Z,50.76
2023-02-28T15:07:29.486Z,50.51
2023-02-28T15:10:32.024Z,50.59
2023-02-28T15:13:50.551Z,50.65
2023-02-28T15:17:03.137Z,50.72
2023-02-28T15:20:05.349Z,50.59
2023-02-28T15:23:07.110Z,50.60
2023-02-28T15:26:15.437Z,50.59
2023-02-28T15:29:21.653Z,50.55
2023-02-28T15:32:32.546Z,50.58
2023-02-28T15:35:34.705Z,50.67
2023-02-28T15:38:37.378Z,50.65
2023-02-28T15:41:39.282Z,50.67
2023-02-28T15:44:40.868Z,50.57
2023-02-28T15:47:47.236Z,50.51
2023-02-28T15:50:53.439Z,50.38
2023-02-28T15:54:01.666Z,50.45
2023-02-28T15:57:09.552Z,50.45
2023-02-28T16:00:15.107Z,50.60
2023-02-28T16:03:40.370Z,50.62
2023-02-28T16:06:46.168Z,50.57
2023-02-28T16:09:49.147Z,50.57
2023-02-28T16:12:50.763Z,50.49
2023-02-28T16:15:52.437Z,50.54
2023-02-28T16:18:54.566Z,50.71
2023-02-28T16:21:56.198Z,50.64
2023-02-28T16:24:57.770Z,50.61
2023-02-28T16:28:01.386Z,50.61
2023-02-28T16:31:06.266Z,50.60
2023-02-28T16:34:07.907Z,50.70
2023-02-28T16:37:14.046Z,50.68
2023-02-28T16:40:21.931Z,50.67
2023-02-28T16:43:25.749Z,50.65
2023-02-28T16:46:37.146Z,50.80
2023-02-28T16:49:39.333Z,50.84
2023-02-28T16:52:40.848Z,50.88
2023-02-28T16:55:42.716Z,50.82
2023-02-28T16:58:45.010Z,50.74
2023-02-28T17:01:46.828Z,50.76
2023-02-28T17:04:48.575Z,50.72
2023-02-28T17:07:50.655Z,51.04
2023-02-28T17:10:52.249Z,50.92
2023-02-28T17:13:54.966Z,50.99
2023-02-28T17:16:56.603Z,50.98
2023-02-28T17:19:58.107Z,51.13
2023-02-28T17:22:59.668Z,51.04
2023-02-28T17:26:01.323Z,51.13
2023-02-28T17:29:02.909Z,51.15
2023-02-28T17:32:17.024Z,50.96
2023-02-28T17:35:19.090Z,50.75
2023-02-28T17:38:21.080Z,51.12
2023-02-28T17:41:23.176Z,50.75
2023-02-28T17:44:26.033Z,51.18
2023-02-28T17:47:27.619Z,51.15
2023-02-28T17:50:29.238Z,51.24
2023-02-28T17:53:30.788Z,51.21
2023-02-28T17:56:32.913Z,50.97
2023-02-28T17:59:34.632Z,51.28
2023-02-28T18:02:36.223Z,50.99
2023-02-28T18:05:38.141Z,51.02
2023-02-28T18:08:39.763Z,51.08
2023-02-28T18:11:46.146Z,50.86
2023-02-28T18:14:48.783Z,51.00
2023-02-28T18:17:50.505Z,50.93
2023-02-28T18:20:53.385Z,51.21
2023-02-28T18:23:55.111Z,50.91
2023-02-28T18:26:56.689Z,51.03
2023-02-28T18:29:58.438Z,50.69
2023-02-28T18:33:01.625Z,50.96
2023-02-28T18:36:03.791Z,50.71
2023-02-28T18:39:05.907Z,50.81
2023-02-28T18:42:07.504Z,50.76
2023-02-28T18:45:09.668Z,50.66
2023-02-28T18:48:11.241Z,50.63
2023-02-28T18:51:19.130Z,50.88
2023-02-28T18:54:20.863Z,50.58
2023-02-28T18:57:22.449Z,50.63
2023-02-28T19:00:25.792Z,50.62
2023-02-28T19:03:27.574Z,50.93
2023-02-28T19:06:30.404Z,50.50
2023-02-28T19:09:32.177Z,50.59
2023-02-28T19:12:35.472Z,50.70
2023-02-28T19:15:37.075Z,50.91
2023-02-28T19:18:39.108Z,50.98
2023-02-28T19:21:40.809Z,50.63
2023-02-28T19:24:42.315Z,50.70
2023-02-28T19:27:43.938Z,51.07
2023-02-28T19:30:49.933Z,50.75
2023-02-28T19:33:54.951Z,50.96
2023-02-28T19:36:57.072Z,50.81
2023-02-28T19:39:58.786Z,50.64
2023-02-28T19:43:02.966Z,50.97
2023-02-28T19:46:06.613Z,50.83
2023-02-28T19:49:08.298Z,51.00
2023-02-28T19:52:13.399Z,50.84
2023-02-28T19:55:17.722Z,50.86
2023-02-28T19:58:19.981Z,50.89
2023-02-28T20:01:21.691Z,50.87
2023-02-28T20:04:24.290Z,51.08
2023-02-28T20:07:26.200Z,51.18
2023-02-28T20:10:27.729Z,50.93
2023-02-28T20:13:29.324Z,50.88
2023-02-28T20:16:32.267Z,50.89
2023-02-28T20:19:34.042Z,50.97
2023-02-28T20:22:38.228Z,51.09
2023-02-28T20:25:40.923Z,51.22
2023-02-28T20:28:43.421Z,51.08
2023-02-28T20:31:45.392Z,51.21
2023-02-28T20:34:46.986Z,51.27
2023-02-28T20:37:48.767Z,51.17
2023-02-28T20:40:55.276Z,51.01
2023-02-28T20:43:58.533Z,51.11
2023-02-28T20:47:00.861Z,51.30
2023-02-28T20:50:02.416Z,51.11
2023-02-28T20:53:04.013Z,51.11
2023-02-28T20:56:09.162Z,51.34
2023-02-28T20:59:12.340Z,51.26
2023-02-28T21:02:19.078Z,51.14
2023-02-28T21:05:20.653Z,51.25
2023-02-28T21:08:22.311Z,50.98
2023-02-28T21:11:28.025Z,51.27
2023-02-28T21:14:29.622Z,51.00
2023-02-28T21:17:31.236Z,51.07
2023-02-28T21:20:32.793Z,51.25
2023-02-28T21:23:34.594Z,51.29
2023-02-28T21:26:36.209Z,51.28
2023-02-28T21:29:38.302Z,51.30
2023-02-28T21:32:39.859Z,51.35
2023-02-28T21:35:41.432Z,51.27
2023-02-28T21:38:44.333Z,51.34
2023-02-28T21:41:47.336Z,51.31
2023-02-28T21:44:50.288Z,51.20
2023-02-28T21:47:51.834Z,51.47
2023-02-28T21:51:04.181Z,51.30
2023-02-28T21:54:06.192Z,51.40
2023-02-28T21:57:07.763Z,51.27
2023-02-28T22:00:11.641Z,51.65
2023-02-28T22:03:14.019Z,51.35
2023-02-28T22:06:21.334Z,51.36
2023-02-28T22:09:23.245Z,51.27
2023-02-28T22:12:25.688Z,51.17
2023-02-28T22:15:27.842Z,51.12
2023-02-28T22:18:29.444Z,51.36
2023-02-28T22:21:31.032Z,51.06
2023-02-28T22:24:32.642Z,52.22
2023-02-28T22:27:34.160Z,51.68
2023-02-28T22:30:35.696Z,51.60
2023-02-28T22:33:37.234Z,51.33
2023-02-28T22:36:41.719Z,51.53
2023-02-28T22:39:43.275Z,51.41
2023-02-28T22:42:44.957Z,51.44
2023-02-28T22:45:46.588Z,51.39
2023-02-28T22:48:48.908Z,51.50
2023-02-28T22:51:50.743Z,51.33
2023-02-28T22:54:53.328Z,51.44
2023-02-28T22:57:54.867Z,51.54
2023-02-28T23:00:56.750Z,51.66
2023-02-28T23:03:59.144Z,51.37
2023-02-28T23:07:00.746Z,51.45
2023-02-28T23:10:08.801Z,51.64
2023-02-28T23:13:10.360Z,51.16
2023-02-28T23:16:11.924Z,51.37
2023-02-28T23:19:15.364Z,51.62
2023-02-28T23:22:16.951Z,51.69
2023-02-28T23:25:20.320Z,51.75
2023-02-28T23:28:23.082Z,51.39
2023-02-28T23:31:24.794Z,51.86
2023-02-28T23:34:30.334Z,51.60
2023-02-28T23:37:32.466Z,51.69
2023-02-28T23:40:34.021Z,51.63
2023-02-28T23:43:35.970Z,52.00
2023-02-28T23:46:37.532Z,51.91
2023-02-28T23:49:39.221Z,52.03
2023-02-28T23:52:40.748Z,51.95
2023-02-28T23:55:47.300Z,51.64
2023-02-28T23:58:50.272Z,52.18
